Terminal Aerodrome Forecast
Issued by NWS

Home | Current Version | Previous Version | Graphics & Text | Print | Product List | Glossary On
Versions: 1 2 3 4 5 6 7 8 9 10 11 12 13 14 15 16 17 18 19 20 21 22 23 24 25 26 27 28 29 30 31 32 33
713
FTUS43 KABR 151519 AAA
TAFPIR
TAF AMD
KPIR 151519Z 1515/1612 14012KT P6SM VCSH BKN009
     FM151800 13011KT P6SM -SHRA VCTS BKN025CB
     FM152200 12008KT P6SM BKN045
     FM160100 07008KT P6SM OVC060
     FM160400 VRB06KT P6SM OVC025
     FM160800 VRB06KT P6SM BKN015=

USA.gov is the U.S. government's official web portal to all federal, state and local government web resources and services.